Time;durP1;ratioP1;P1;durP2;ratioP2;P2;SDS_P1;SDS_P2;PMS_P1;PMS_P2;Temp;Humidity;BMP_temperature;BMP_pressure;BME280_temperature;BME280_humidity;BME280_pressure;Samples;Min_cycle;Max_cycle;Signal;HPM_P1;HPM_P2
2024/04/07 00:00:41;;;;;;;;;29.00;23.00;;;;;7.69;91.49;100779.98;113487;220;170091;-57
2024/04/07 00:03:39;;;;;;;;;40.00;32.50;;;;;7.68;91.48;100782.13;113682;220;40191;-54
2024/04/07 00:06:21;;;;;;;;;42.00;32.50;;;;;7.64;91.57;100781.27;113467;220;170261;-54
2024/04/07 00:08:56;;;;;;;;;39.50;32.00;;;;;7.61;91.60;100782.12;113640;223;41299;-57
2024/04/07 00:11:30;;;;;;;;;31.00;25.00;;;;;7.59;91.72;100784.97;113639;223;40120;-56
2024/04/07 00:14:07;;;;;;;;;38.50;31.50;;;;;7.58;91.77;100787.79;113419;220;169914;-54
2024/04/07 00:16:44;;;;;;;;;31.00;25.00;;;;;7.56;91.77;100785.32;113605;223;41626;-54
2024/04/07 00:19:24;;;;;;;;;41.00;34.00;;;;;7.53;91.88;100785.25;113410;220;169984;-54
2024/04/07 00:22:01;;;;;;;;;33.00;26.00;;;;;7.49;91.90;100789.08;113601;220;39624;-54
2024/04/07 00:24:37;;;;;;;;;43.00;33.00;;;;;7.45;91.93;100787.69;113423;223;169940;-54
2024/04/07 00:27:14;;;;;;;;;38.00;31.00;;;;;7.46;92.08;100793.01;113596;220;39749;-54
2024/04/07 00:29:54;;;;;;;;;37.00;29.00;;;;;7.46;92.07;100792.27;113665;220;41417;-57
2024/04/07 00:32:28;;;;;;;;;38.00;29.00;;;;;7.42;92.20;100792.73;113399;223;169623;-57
2024/04/07 00:35:03;;;;;;;;;36.00;29.00;;;;;7.40;92.15;100799.41;113620;223;40234;-54
2024/04/07 00:37:38;;;;;;;;;34.50;28.00;;;;;7.40;92.23;100800.46;113387;223;169786;-54
2024/04/07 00:40:13;;;;;;;;;37.50;29.50;;;;;7.36;92.35;100799.77;113614;220;40818;-57
2024/04/07 00:42:52;;;;;;;;;36.00;29.50;;;;;7.34;92.54;100799.66;113426;223;170564;-57
2024/04/07 00:45:31;;;;;;;;;43.00;34.00;;;;;7.34;92.51;100798.04;113633;220;41298;-54
2024/04/07 00:48:07;;;;;;;;;39.67;33.00;;;;;7.37;92.66;100794.69;113623;220;40626;-53
2024/04/07 00:50:44;;;;;;;;;42.00;34.00;;;;;7.43;92.69;100792.45;113629;223;40684;-56
2024/04/07 00:53:23;;;;;;;;;48.00;38.00;;;;;7.57;93.07;100786.24;113642;223;40486;-55
2024/04/07 00:56:02;;;;;;;;;43.00;33.00;;;;;7.62;93.16;100780.21;113449;223;171039;-55
2024/04/07 00:58:46;;;;;;;;;38.00;32.00;;;;;7.60;93.36;100785.39;113653;220;40504;-54
2024/04/07 01:01:24;;;;;;;;;48.00;39.00;;;;;7.60;93.15;100787.60;113459;223;169980;-54
2024/04/07 01:04:04;;;;;;;;;56.00;41.00;;;;;7.54;93.23;100796.64;113671;223;41631;-57
2024/04/07 01:06:41;;;;;;;;;46.67;38.00;;;;;7.48;93.13;100804.98;113485;223;169952;-57
2024/04/07 01:09:16;;;;;;;;;46.00;37.00;;;;;7.42;92.95;100803.52;113640;220;39644;-53
2024/04/07 01:11:52;;;;;;;;;40.00;31.00;;;;;7.34;92.95;100807.57;113625;220;41411;-53
2024/04/07 01:14:31;;;;;;;;;39.33;31.67;;;;;7.29;92.87;100801.30;113422;220;169745;-55
2024/04/07 01:17:11;;;;;;;;;50.00;39.00;;;;;7.25;93.08;100802.41;113594;223;40211;-55
2024/04/07 01:19:50;;;;;;;;;49.00;38.00;;;;;7.22;92.84;100805.25;113413;223;169830;-56
2024/04/07 01:22:29;;;;;;;;;48.00;38.00;;;;;7.16;93.07;100802.98;113583;220;41171;-56
2024/04/07 01:25:06;;;;;;;;;50.00;39.25;;;;;7.12;93.14;100801.05;113427;223;169638;-56
2024/04/07 01:27:43;;;;;;;;;40.33;31.33;;;;;7.15;93.33;100806.85;113581;220;40469;-56
2024/04/07 01:30:26;;;;;;;;;39.50;32.00;;;;;7.17;93.53;100814.88;113476;220;170561;-57
2024/04/07 01:33:05;;;;;;;;;41.00;32.00;;;;;7.18;93.36;100815.37;113627;220;40570;-57
2024/04/07 01:35:39;;;;;;;;;50.00;39.50;;;;;7.17;93.32;100817.04;113674;223;39865;-56
2024/04/07 01:38:16;;;;;;;;;51.50;40.00;;;;;7.10;93.42;100821.80;113441;220;169667;-56
2024/04/07 01:40:53;;;;;;;;;44.00;35.00;;;;;7.06;93.48;100822.77;113697;220;40624;-55
2024/04/07 01:43:28;;;;;;;;;51.00;39.67;;;;;7.07;93.43;100830.96;113426;220;169898;-55
2024/04/07 01:46:07;;;;;;;;;41.00;32.00;;;;;7.06;93.35;100830.35;113663;220;39699;-55
2024/04/07 01:48:47;;;;;;;;;50.00;40.00;;;;;7.02;93.52;100825.05;113466;223;170002;-54
2024/04/07 01:51:29;;;;;;;;;49.75;39.00;;;;;6.98;93.45;100827.58;113646;220;40797;-54
2024/04/07 01:54:09;;;;;;;;;40.00;31.00;;;;;6.96;93.56;100822.24;113664;220;42123;-57
2024/04/07 01:56:51;;;;;;;;;48.00;38.50;;;;;6.97;93.55;100823.69;113586;221;40505;-57
2024/04/07 01:59:30;;;;;;;;;48.00;38.00;;;;;6.98;93.66;100825.45;113614;220;40983;-54
2024/04/07 02:02:04;;;;;;;;;47.00;37.50;;;;;6.96;93.60;100823.49;113431;220;169880;-54
2024/04/07 02:04:38;;;;;;;;;50.00;38.00;;;;;6.99;93.79;100820.10;113606;220;41807;-57
2024/04/07 02:07:18;;;;;;;;;34.00;28.00;;;;;7.01;93.91;100822.23;113416;220;170610;-57
2024/04/07 02:09:56;;;;;;;;;46.00;37.00;;;;;7.00;93.90;100821.95;113623;223;40279;-57
2024/04/07 02:12:34;;;;;;;;;37.00;30.00;;;;;7.01;93.76;100818.52;113457;220;170011;-57
2024/04/07 02:15:10;;;;;;;;;;;;;;;6.97;93.86;100814.47;113645;223;40256;-57
2024/04/07 02:17:44;;;;;;;;;40.00;32.00;;;;;6.97;93.90;100812.98;113627;223;41547;-57
2024/04/07 02:20:24;;;;;;;;;38.00;31.00;;;;;7.00;93.99;100817.55;113458;220;169730;-54
2024/04/07 02:23:01;;;;;;;;;43.00;34.00;;;;;7.02;94.18;100818.58;113695;223;41800;-54
2024/04/07 02:25:41;;;;;;;;;42.00;34.00;;;;;7.01;94.16;100816.15;113495;220;169995;-57
2024/04/07 02:28:18;;;;;;;;;34.00;27.00;;;;;7.00;94.27;100810.29;113694;223;40128;-57
2024/04/07 02:30:58;;;;;;;;;35.00;28.00;;;;;7.04;94.18;100806.53;113475;221;170115;-54
2024/04/07 02:33:39;;;;;;;;;45.00;35.00;;;;;7.05;94.40;100805.89;113636;223;39787;-57
2024/04/07 02:36:14;;;;;;;;;42.33;32.33;;;;;7.11;94.50;100797.21;113668;223;40100;-57
2024/04/07 02:38:52;;;;;;;;;37.00;30.00;;;;;7.14;94.42;100788.33;113662;223;39619;-56
2024/04/07 02:41:27;;;;;;;;;36.00;27.00;;;;;7.14;94.48;100789.52;113591;219;40179;-56
2024/04/07 02:44:01;;;;;;;;;46.00;35.50;;;;;7.18;94.54;100790.41;113432;220;169520;-56
2024/04/07 02:49:28;;;;;;;;;38.00;32.00;;;;;7.20;94.68;100786.80;113401;223;169631;-57
2024/04/07 02:52:03;;;;;;;;;44.00;35.00;;;;;7.21;94.72;100784.02;113597;223;40406;-56
2024/04/07 02:54:39;;;;;;;;;41.50;32.00;;;;;7.21;94.73;100781.73;113465;223;170453;-56
2024/04/07 02:57:14;;;;;;;;;37.00;29.50;;;;;7.26;94.95;100791.67;113587;223;40196;-57
2024/04/07 03:00:00;;;;;;;;;40.00;31.00;;;;;7.32;95.03;100796.26;113659;219;41007;-54
2024/04/07 03:02:37;;;;;;;;;36.00;29.00;;;;;7.34;95.02;100798.71;113431;220;169526;-54
2024/04/07 03:05:11;;;;;;;;;31.00;26.00;;;;;7.39;95.20;100799.48;113622;223;41207;-57
2024/04/07 03:07:46;;;;;;;;;41.67;32.33;;;;;7.44;95.23;100801.32;113448;219;169806;-57
2024/04/07 03:10:22;;;;;;;;;41.00;33.00;;;;;7.47;95.12;100796.09;113643;223;41731;-56
2024/04/07 03:13:04;;;;;;;;;42.50;32.50;;;;;7.45;95.16;100795.92;113484;219;169964;-56
2024/04/07 03:15:46;;;;;;;;;34.00;27.00;;;;;7.43;95.31;100795.61;113663;219;40472;-55
2024/04/07 03:18:25;;;;;;;;;31.00;25.00;;;;;7.41;95.35;100802.48;113441;219;169935;-55
2024/04/07 03:21:07;;;;;;;;;42.00;32.00;;;;;7.41;95.31;100808.56;113646;223;41588;-57
2024/04/07 03:23:48;;;;;;;;;42.00;33.00;;;;;7.42;95.39;100816.55;113689;219;39598;-57
2024/04/07 03:26:24;;;;;;;;;38.00;31.00;;;;;7.42;95.31;100817.10;113461;223;169754;-57
2024/04/07 03:29:02;;;;;;;;;32.00;24.00;;;;;7.42;95.43;100825.80;113606;223;41542;-54
2024/04/07 03:31:37;;;;;;;;;32.00;25.00;;;;;7.40;95.30;100827.87;113416;223;169754;-54
2024/04/07 03:34:21;;;;;;;;;30.00;24.00;;;;;7.37;95.19;100818.64;113657;223;41757;-58
2024/04/07 03:36:58;;;;;;;;;29.50;25.00;;;;;7.38;95.21;100822.39;113387;224;170019;-57
2024/04/07 03:39:33;;;;;;;;;37.00;31.00;;;;;7.44;95.08;100834.82;113620;220;40642;-57
2024/04/07 03:42:08;;;;;;;;;41.00;31.00;;;;;7.42;95.30;100835.84;113595;223;40582;-57
2024/04/07 03:44:43;;;;;;;;;40.50;32.00;;;;;7.41;95.24;100820.26;113569;223;40143;-56
2024/04/07 03:47:25;;;;;;;;;40.50;30.50;;;;;7.43;95.29;100823.27;113571;220;40276;-57
2024/04/07 03:50:06;;;;;;;;;35.00;27.00;;;;;7.44;95.26;100831.89;113446;223;170174;-55
2024/04/07 03:52:51;;;;;;;;;42.00;30.00;;;;;7.45;95.33;100826.63;113630;223;42843;-54
2024/04/07 03:55:35;;;;;;;;;29.00;25.00;;;;;7.47;95.39;100817.98;113453;223;169938;-55
2024/04/07 03:58:10;;;;;;;;;39.00;29.00;;;;;7.50;95.39;100817.63;113656;220;41069;-56
2024/04/07 04:00:44;;;;;;;;;35.00;29.00;;;;;7.55;95.58;100826.27;113527;223;170126;-56
2024/04/07 04:03:44;;;;;;;;;41.00;31.00;;;;;7.55;95.60;100825.07;113649;219;40401;-57
2024/04/07 04:06:40;;;;;;;;;31.00;24.00;;;;;7.58;95.67;100820.05;113477;223;170470;-54
2024/04/07 04:09:20;;;;;;;;;36.00;29.00;;;;;7.66;95.72;100824.54;113684;219;40557;-53
2024/04/07 04:11:58;;;;;;;;;37.00;29.00;;;;;7.78;95.88;100818.90;113612;219;40717;-56
2024/04/07 04:14:35;;;;;;;;;40.00;30.00;;;;;7.88;95.93;100815.59;113437;223;169935;-57
2024/04/07 04:17:20;;;;;;;;;35.50;29.00;;;;;8.16;96.66;100817.10;113635;220;40442;-57
2024/04/07 04:19:57;;;;;;;;;37.50;28.50;;;;;8.37;96.82;100812.11;113409;223;170155;-54
2024/04/07 04:22:35;;;;;;;;;35.00;25.00;;;;;8.43;96.63;100798.72;113592;220;41588;-54
2024/04/07 04:25:09;;;;;;;;;35.00;27.50;;;;;8.60;97.05;100811.61;113425;224;170322;-54
2024/04/07 04:27:43;;;;;;;;;40.00;30.00;;;;;8.81;96.99;100822.70;113562;220;40510;-56
2024/04/07 04:30:22;;;;;;;;;36.00;29.00;;;;;8.94;96.91;100825.44;113459;220;170519;-52
2024/04/07 04:33:02;;;;;;;;;38.00;30.00;;;;;9.04;96.82;100825.21;113631;220;40289;-53
2024/04/07 04:35:42;;;;;;;;;37.00;30.00;;;;;9.16;96.90;100829.10;113700;219;40104;-56
2024/04/07 04:38:24;;;;;;;;;35.50;29.00;;;;;9.36;96.83;100833.30;113400;223;170372;-57
2024/04/07 04:41:02;;;;;;;;;39.00;30.00;;;;;9.65;96.94;100841.17;113706;220;39984;-56
2024/04/07 04:43:41;;;;;;;;;42.00;32.00;;;;;10.02;97.03;100838.51;113547;220;170352;-56
2024/04/07 04:46:17;;;;;;;;;42.00;32.00;;;;;10.25;96.47;100831.02;113614;219;40275;-56
2024/04/07 04:48:50;;;;;;;;;40.00;32.00;;;;;10.44;96.34;100830.25;113510;219;170897;-56
2024/04/07 04:51:27;;;;;;;;;38.00;30.00;;;;;10.65;95.92;100831.17;113722;220;40132;-57
2024/04/07 04:54:04;;;;;;;;;40.00;32.00;;;;;10.74;95.72;100830.91;113733;220;40863;-56
2024/04/07 04:56:44;;;;;;;;;40.00;31.00;;;;;10.90;95.39;100831.46;113460;220;170440;-57
2024/04/07 04:59:23;;;;;;;;;37.50;30.50;;;;;11.25;95.21;100836.47;113655;219;39621;-54
2024/04/07 05:02:03;;;;;;;;;40.00;32.00;;;;;11.49;94.77;100835.15;113372;223;170628;-54
2024/04/07 05:04:40;;;;;;;;;40.50;31.00;;;;;11.70;94.68;100836.06;113614;224;41338;-57
2024/04/07 05:07:21;;;;;;;;;39.50;32.00;;;;;11.81;94.07;100833.71;113449;220;170120;-57
2024/04/07 05:10:04;;;;;;;;;41.00;33.00;;;;;11.96;93.67;100827.79;113680;223;39995;-56
2024/04/07 05:12:38;;;;;;;;;37.00;30.00;;;;;12.04;93.12;100823.88;113442;219;170154;-54
2024/04/07 05:15:12;;;;;;;;;37.00;30.00;;;;;12.37;93.25;100821.23;113651;224;40367;-57
2024/04/07 05:17:47;;;;;;;;;35.50;27.00;;;;;12.78;92.30;100821.80;113643;220;41350;-57
2024/04/07 05:20:28;;;;;;;;;34.00;29.00;;;;;13.03;91.98;100826.42;113548;220;170631;-57
2024/04/07 05:23:14;;;;;;;;;36.00;29.00;;;;;13.20;91.76;100828.19;113644;219;41498;-57
2024/04/07 05:25:50;;;;;;;;;35.50;29.00;;;;;13.44;91.36;100834.23;113512;220;170730;-54
2024/04/07 05:28:27;;;;;;;;;36.67;30.00;;;;;13.67;90.67;100839.70;113656;220;41490;-54
2024/04/07 05:31:10;;;;;;;;;37.00;30.00;;;;;13.80;90.77;100840.80;113489;223;170475;-56
2024/04/07 05:33:51;;;;;;;;;33.50;29.00;;;;;14.16;90.76;100838.58;113676;219;41055;-57
2024/04/07 05:36:25;;;;;;;;;36.00;30.00;;;;;15.06;90.45;100844.92;113517;219;170005;-57
2024/04/07 05:39:04;;;;;;;;;37.00;30.50;;;;;16.42;89.92;100851.55;113636;223;39845;-53
2024/04/07 05:41:46;;;;;;;;;36.00;30.00;;;;;18.11;88.62;100849.95;113614;220;41478;-53
2024/04/07 05:44:33;;;;;;;;;37.00;30.00;;;;;19.57;86.51;100853.18;113397;220;170518;-54
2024/04/07 05:47:08;;;;;;;;;33.67;29.00;;;;;20.60;83.15;100855.73;113600;223;39969;-54
2024/04/07 05:49:50;;;;;;;;;36.75;29.75;;;;;21.47;80.84;100840.16;113418;220;170209;-57
2024/04/07 05:52:26;;;;;;;;;36.00;31.00;;;;;22.39;77.09;100837.80;113617;219;41881;-56
2024/04/07 05:55:08;;;;;;;;;30.33;26.33;;;;;22.34;75.16;100838.96;113456;219;170291;-55
2024/04/07 05:57:51;;;;;;;;;35.00;30.00;;;;;21.97;73.53;100834.43;113597;219;39966;-55
2024/04/07 06:00:31;;;;;;;;;32.00;28.00;;;;;22.06;72.24;100829.39;113453;219;170748;-54
2024/04/07 06:03:06;;;;;;;;;35.00;29.00;;;;;22.90;70.59;100822.92;113555;223;40004;-54
2024/04/07 06:05:44;;;;;;;;;28.00;25.00;;;;;23.82;68.76;100821.22;113645;219;40345;-55
2024/04/07 06:08:28;;;;;;;;;31.00;26.00;;;;;24.34;66.30;100822.35;113434;224;170180;-54
2024/04/07 06:11:05;;;;;;;;;31.00;27.00;;;;;25.04;64.56;100810.64;113651;223;41166;-54
2024/04/07 06:13:42;;;;;;;;;27.00;24.00;;;;;25.65;62.74;100803.59;113498;220;170001;-56
2024/04/07 06:16:16;;;;;;;;;26.50;24.00;;;;;25.59;61.48;100812.56;113634;224;40112;-56
2024/04/07 06:18:56;;;;;;;;;29.00;26.00;;;;;25.03;60.27;100819.39;113481;220;170313;-57
2024/04/07 06:21:33;;;;;;;;;27.67;24.67;;;;;24.87;59.45;100808.40;113655;223;41885;-58
2024/04/07 06:24:09;;;;;;;;;30.00;26.00;;;;;24.51;58.75;100816.40;113659;223;41202;-57
2024/04/07 06:26:48;;;;;;;;;26.00;24.00;;;;;23.47;58.73;100823.75;113541;219;40180;-56
2024/04/07 06:29:31;;;;;;;;;28.67;24.00;;;;;22.59;59.27;100832.77;113597;219;40568;-54
2024/04/07 06:32:08;;;;;;;;;21.00;19.00;;;;;21.91;59.13;100831.30;113399;223;169933;-53
2024/04/07 06:34:51;;;;;;;;;25.00;23.00;;;;;21.38;59.40;100831.56;113641;223;40068;-56
2024/04/07 06:37:32;;;;;;;;;25.00;22.50;;;;;21.04;59.47;100827.10;113390;223;169996;-57
2024/04/07 06:40:08;;;;;;;;;24.00;23.00;;;;;20.88;59.46;100817.63;113607;219;40816;-53
2024/04/07 06:42:52;;;;;;;;;26.00;23.00;;;;;20.68;60.18;100814.54;113442;219;170294;-54
2024/04/07 06:45:34;;;;;;;;;27.00;23.00;;;;;20.71;60.08;100819.33;113026;223;790165;-53
2024/04/07 06:48:09;;;;;;;;;25.00;23.00;;;;;20.49;60.20;100819.45;113618;223;39608;-53
2024/04/07 06:50:49;;;;;;;;;22.00;20.00;;;;;20.42;59.22;100826.06;113473;219;169425;-58
2024/04/07 06:53:23;;;;;;;;;23.00;20.00;;;;;20.29;59.60;100824.19;113671;219;40395;-57
2024/04/07 06:56:04;;;;;;;;;21.33;18.67;;;;;20.17;59.22;100820.58;113462;219;169894;-55
2024/04/07 06:58:43;;;;;;;;;26.00;23.00;;;;;20.20;59.71;100820.09;113724;219;40744;-54
2024/04/07 07:01:26;;;;;;;;;21.50;19.50;;;;;20.40;58.99;100822.56;113437;223;170148;-55
2024/04/07 07:04:07;;;;;;;;;22.00;19.00;;;;;20.91;59.34;100824.77;113666;219;40529;-56
2024/04/07 07:06:46;;;;;;;;;21.50;19.00;;;;;21.27;58.14;100822.58;113497;219;170467;-56
2024/04/07 07:09:25;;;;;;;;;19.00;18.00;;;;;21.85;58.15;100824.95;113611;224;41887;-53
2024/04/07 07:11:59;;;;;;;;;18.00;15.00;;;;;21.98;56.30;100824.48;113655;223;40646;-53
2024/04/07 07:14:39;;;;;;;;;17.00;14.00;;;;;21.80;55.36;100816.55;113470;220;169950;-56
2024/04/07 07:17:31;;;;;;;;;17.00;15.33;;;;;21.98;55.58;100813.96;113631;223;39850;-56
2024/04/07 07:20:10;;;;;;;;;19.00;16.00;;;;;22.32;55.27;100810.64;113431;219;170387;-53
2024/04/07 07:22:46;;;;;;;;;20.00;18.00;;;;;22.66;54.54;100811.94;113579;223;39659;-54
2024/04/07 07:25:19;;;;;;;;;;;;;;;22.51;54.56;100819.12;113445;219;170691;-56
2024/04/07 07:27:57;;;;;;;;;18.00;16.00;;;;;22.43;55.02;100823.48;113626;219;39654;-55
2024/04/07 07:30:36;;;;;;;;;17.50;16.00;;;;;22.36;54.87;100820.42;113440;219;170231;-54
2024/04/07 07:33:08;;;;;;;;;;;;;;;22.39;55.02;100825.36;113584;223;41824;-54
2024/04/07 07:35:44;;;;;;;;;19.00;16.00;;;;;22.57;54.51;100824.27;113632;219;39768;-56
2024/04/07 07:38:25;;;;;;;;;16.67;15.33;;;;;22.56;54.40;100833.29;113422;219;170123;-56
2024/04/07 07:41:06;;;;;;;;;17.00;15.00;;;;;22.61;53.58;100840.91;113614;219;41104;-56
2024/04/07 07:43:45;;;;;;;;;16.00;14.00;;;;;22.62;54.08;100844.44;113458;223;170024;-54
2024/04/07 07:46:24;;;;;;;;;17.00;14.00;;;;;22.84;53.67;100843.72;113627;219;41708;-54
2024/04/07 07:49:01;;;;;;;;;15.00;13.50;;;;;23.02;53.66;100844.18;113497;223;170045;-56
2024/04/07 07:51:39;;;;;;;;;15.00;14.00;;;;;23.26;54.13;100844.25;113661;220;40502;-57
2024/04/07 07:54:16;;;;;;;;;16.00;15.00;;;;;23.31;52.69;100848.42;113667;223;41287;-56
2024/04/07 07:56:53;;;;;;;;;14.00;12.00;;;;;23.13;52.20;100851.51;113702;221;41794;-55
2024/04/07 07:59:30;;;;;;;;;16.00;14.00;;;;;23.17;51.94;100852.27;113697;219;40533;-54
2024/04/07 08:02:17;;;;;;;;;14.00;12.67;;;;;23.08;51.66;100851.73;113449;219;169985;-53
2024/04/07 08:04:57;;;;;;;;;13.00;12.00;;;;;23.11;50.91;100849.50;113620;223;41997;-53
2024/04/07 08:07:32;;;;;;;;;13.00;12.00;;;;;23.32;50.77;100844.04;113406;223;169841;-53
2024/04/07 08:10:09;;;;;;;;;13.00;12.00;;;;;24.00;50.61;100849.93;113673;219;41576;-58
2024/04/07 08:12:48;;;;;;;;;12.00;11.00;;;;;24.70;50.57;100855.31;113443;220;170062;-58
2024/04/07 08:15:25;;;;;;;;;14.00;12.00;;;;;25.34;49.76;100855.15;113579;223;40817;-54
2024/04/07 08:18:03;;;;;;;;;12.00;11.00;;;;;25.84;47.99;100861.85;113610;223;41834;-54
2024/04/07 08:20:41;;;;;;;;;13.00;11.00;;;;;26.27;46.97;100860.67;113438;223;169850;-53
2024/04/07 08:23:18;;;;;;;;;11.00;11.00;;;;;26.73;45.15;100866.16;113595;219;40407;-52
2024/04/07 08:25:58;;;;;;;;;10.00;9.00;;;;;26.82;45.09;100869.52;113421;223;169983;-55
2024/04/07 08:28:35;;;;;;;;;13.00;11.25;;;;;26.96;45.07;100862.34;113589;223;41219;-55
2024/04/07 08:31:14;;;;;;;;;11.00;10.00;;;;;27.47;46.03;100862.23;113417;223;169935;-55
2024/04/07 08:33:48;;;;;;;;;11.50;10.00;;;;;28.11;45.68;100858.98;113625;220;40457;-53
2024/04/07 08:36:28;;;;;;;;;11.00;10.00;;;;;28.93;45.19;100861.83;113496;219;170054;-53
2024/04/07 08:39:05;;;;;;;;;10.00;10.00;;;;;29.36;42.12;100855.98;113612;220;39984;-56
2024/04/07 08:41:44;;;;;;;;;11.00;10.00;;;;;29.30;41.39;100853.58;113687;219;42560;-56
2024/04/07 08:44:24;;;;;;;;;11.00;9.50;;;;;28.97;41.43;100855.43;113508;219;170161;-57
2024/04/07 08:47:03;;;;;;;;;12.00;10.00;;;;;28.89;40.78;100852.55;113753;219;39783;-56
2024/04/07 08:49:43;;;;;;;;;9.00;8.00;;;;;28.66;41.00;100852.02;113504;220;169835;-55
2024/04/07 08:52:20;;;;;;;;;10.00;9.00;;;;;28.61;41.13;100850.57;113650;219;40277;-55
2024/04/07 08:55:07;;;;;;;;;10.00;9.00;;;;;28.51;41.21;100845.28;113407;219;169895;-55
2024/04/07 08:57:50;;;;;;;;;9.00;9.00;;;;;28.32;41.13;100841.92;113614;220;39997;-53
2024/04/07 09:00:35;;;;;;;;;9.00;9.00;;;;;28.18;41.05;100836.30;113446;219;169776;-56
2024/04/07 09:03:14;;;;;;;;;9.67;8.67;;;;;28.17;40.34;100832.42;113573;223;40330;-55
2024/04/07 09:05:53;;;;;;;;;8.00;8.00;;;;;28.08;39.99;100831.59;113648;223;40253;-55
2024/04/07 09:08:34;;;;;;;;;8.00;7.00;;;;;27.95;40.39;100821.41;113431;220;169560;-56
2024/04/07 09:11:14;;;;;;;;;7.00;7.00;;;;;28.06;39.24;100822.92;113677;219;40687;-56
2024/04/07 09:13:49;;;;;;;;;8.33;8.00;;;;;27.81;39.19;100811.84;113495;223;169542;-55
2024/04/07 09:16:25;;;;;;;;;10.50;9.00;;;;;27.60;39.77;100810.55;113621;219;41474;-67
2024/04/07 09:19:03;;;;;;;;;9.50;9.00;;;;;27.48;40.74;100808.42;113409;220;169645;-53
2024/04/07 09:21:56;;;;;;;;;8.00;7.50;;;;;27.37;40.59;100805.02;113587;220;40319;-52
2024/04/07 09:24:39;;;;;;;;;9.00;9.00;;;;;27.28;40.14;100803.76;113446;219;169577;-54
2024/04/07 09:27:22;;;;;;;;;9.00;8.33;;;;;26.87;40.27;100799.73;113610;219;41682;-54
2024/04/07 09:29:58;;;;;;;;;8.00;8.00;;;;;26.91;41.21;100804.02;113614;223;41829;-55
2024/04/07 09:32:39;;;;;;;;;9.00;9.00;;;;;26.79;41.33;100803.37;113451;220;169288;-55
2024/04/07 09:35:19;;;;;;;;;10.00;9.00;;;;;26.46;41.55;100802.48;113614;220;40200;-52
2024/04/07 09:37:56;;;;;;;;;7.00;7.00;;;;;26.43;41.82;100811.25;113402;223;169813;-53
2024/04/07 09:40:43;;;;;;;;;10.00;9.00;;;;;26.32;41.64;100804.77;113657;223;40344;-54
2024/04/07 09:43:19;;;;;;;;;9.00;8.00;;;;;26.26;41.91;100802.17;113425;219;169631;-54
2024/04/07 09:45:57;;;;;;;;;10.00;9.00;;;;;26.29;41.71;100801.84;113630;220;39755;-55
2024/04/07 09:48:34;;;;;;;;;10.50;9.00;;;;;26.20;41.84;100799.93;113419;219;170230;-54
2024/04/07 09:51:18;;;;;;;;;11.00;10.00;;;;;26.16;41.74;100798.17;113632;223;40084;-51
2024/04/07 09:54:09;;;;;;;;;9.00;8.00;;;;;25.99;41.67;100796.65;113633;221;40569;-52
2024/04/07 09:56:53;;;;;;;;;8.50;8.00;;;;;25.83;42.15;100791.82;113418;220;169227;-53
2024/04/07 09:59:29;;;;;;;;;7.50;7.00;;;;;25.85;42.40;100787.28;113598;223;41151;-56
2024/04/07 10:02:07;;;;;;;;;8.00;8.00;;;;;25.78;42.58;100786.30;113421;220;169363;-56
2024/04/07 10:04:43;;;;;;;;;10.00;9.00;;;;;25.71;41.93;100788.58;113640;219;40218;-52
2024/04/07 10:07:23;;;;;;;;;9.00;8.00;;;;;25.62;42.11;100788.10;113431;219;169550;-54
2024/04/07 10:10:08;;;;;;;;;9.00;8.00;;;;;25.62;42.37;100779.96;113620;220;40400;-53
2024/04/07 10:12:44;;;;;;;;;9.00;8.00;;;;;25.46;42.51;100773.11;113476;223;170654;-56
2024/04/07 10:15:28;;;;;;;;;9.00;8.50;;;;;25.51;42.82;100772.18;113635;219;40022;-54
2024/04/07 10:18:12;;;;;;;;;10.00;9.00;;;;;25.55;42.37;100775.83;113657;219;41411;-56
2024/04/07 10:20:53;;;;;;;;;10.00;9.00;;;;;25.33;42.14;100775.32;113461;220;169310;-53
2024/04/07 10:23:35;;;;;;;;;7.33;7.00;;;;;25.27;42.33;100775.02;113661;219;40200;-53
2024/04/07 10:26:11;;;;;;;;;8.00;7.00;;;;;25.23;42.29;100769.61;113466;223;169273;-52
2024/04/07 10:28:57;;;;;;;;;11.00;10.00;;;;;25.15;42.45;100756.29;113624;219;40653;-54
2024/04/07 10:31:37;;;;;;;;;9.00;8.00;;;;;25.05;42.76;100751.15;113489;219;169679;-54
2024/04/07 10:34:15;;;;;;;;;7.00;6.00;;;;;25.11;43.34;100747.89;113650;220;40687;-54
2024/04/07 10:37:05;;;;;;;;;7.00;6.00;;;;;25.19;42.67;100749.16;113418;219;169556;-54
2024/04/07 10:39:56;;;;;;;;;9.00;9.00;;;;;25.03;42.05;100746.88;113635;220;40224;-54
2024/04/07 10:42:30;;;;;;;;;7.00;6.00;;;;;24.89;42.25;100741.07;113404;219;169156;-54
2024/04/07 10:45:05;;;;;;;;;8.00;8.00;;;;;24.75;42.53;100742.14;113681;220;40802;-56
2024/04/07 10:47:39;;;;;;;;;7.00;6.50;;;;;24.59;42.49;100737.70;113643;219;41383;-57
2024/04/07 10:50:19;;;;;;;;;7.67;7.00;;;;;24.44;42.45;100737.66;113445;223;169936;-56
2024/04/07 10:53:06;;;;;;;;;9.00;8.00;;;;;24.35;42.33;100734.16;113632;220;40033;-55
2024/04/07 10:55:44;;;;;;;;;8.00;7.00;;;;;24.38;43.26;100734.15;113429;223;169352;-52
2024/04/07 10:58:21;;;;;;;;;10.00;9.00;;;;;24.55;43.66;100734.80;113609;219;40313;-53
2024/04/07 11:01:04;;;;;;;;;10.00;9.00;;;;;24.56;42.75;100734.42;113399;223;169650;-53
2024/04/07 11:03:39;;;;;;;;;7.00;7.00;;;;;24.42;42.71;100728.86;113608;220;40202;-56
2024/04/07 11:06:23;;;;;;;;;8.00;8.00;;;;;24.35;43.39;100731.29;113659;219;40788;-56
2024/04/07 11:08:59;;;;;;;;;8.00;7.00;;;;;24.37;43.62;100730.17;113617;223;42257;-53
2024/04/07 11:11:34;;;;;;;;;10.67;9.00;;;;;24.38;43.51;100734.27;113676;220;40578;-53
2024/04/07 11:14:13;;;;;;;;;8.00;8.00;;;;;24.34;43.53;100733.55;113438;220;169436;-54
2024/04/07 11:16:54;;;;;;;;;7.00;6.00;;;;;24.33;43.45;100730.22;113649;223;40701;-53
2024/04/07 11:19:34;;;;;;;;;7.33;7.33;;;;;24.40;43.82;100734.77;113440;224;169454;-56
2024/04/07 11:22:11;;;;;;;;;9.00;8.00;;;;;24.37;43.64;100741.27;113587;220;39991;-56
2024/04/07 11:24:46;;;;;;;;;8.00;8.00;;;;;24.37;43.27;100741.83;113414;220;169748;-56
2024/04/07 11:27:23;;;;;;;;;7.00;7.00;;;;;24.38;42.96;100746.03;113639;220;40401;-57
2024/04/07 11:30:02;;;;;;;;;7.00;7.00;;;;;24.33;42.92;100747.13;113632;219;40213;-56
2024/04/07 11:32:41;;;;;;;;;6.50;6.50;;;;;24.28;43.46;100748.98;113443;220;169277;-57
2024/04/07 11:35:16;;;;;;;;;8.00;7.33;;;;;24.33;43.58;100745.69;113604;219;40568;-53
2024/04/07 11:37:50;;;;;;;;;8.00;8.00;;;;;24.34;43.60;100734.86;113419;223;169554;-53
2024/04/07 11:40:27;;;;;;;;;7.00;6.50;;;;;24.39;43.35;100730.52;113634;219;39965;-54
2024/04/07 11:43:07;;;;;;;;;8.00;7.00;;;;;24.30;43.13;100728.77;113394;219;169544;-53
2024/04/07 11:45:45;;;;;;;;;7.00;7.00;;;;;24.21;43.66;100723.01;113643;219;41870;-53
2024/04/07 11:48:27;;;;;;;;;8.00;7.00;;;;;24.25;43.69;100728.15;113627;219;39755;-52
2024/04/07 11:51:12;;;;;;;;;12.00;10.00;;;;;24.28;43.30;100729.54;113643;223;40159;-54
2024/04/07 11:53:48;;;;;;;;;8.00;8.00;;;;;24.24;43.30;100729.98;113644;219;40239;-53
2024/04/07 11:56:27;;;;;;;;;8.50;8.00;;;;;24.16;43.17;100724.31;113486;220;169372;-53
2024/04/07 11:59:03;;;;;;;;;8.00;7.00;;;;;24.15;43.68;100724.70;113580;219;40274;-56
2024/04/07 12:01:42;;;;;;;;;8.00;8.00;;;;;24.22;43.64;100721.36;113444;219;169670;-55
2024/04/07 12:04:25;;;;;;;;;7.00;7.00;;;;;24.29;43.38;100719.83;113677;220;40358;-55
2024/04/07 12:06:59;;;;;;;;;7.00;7.00;;;;;24.31;43.30;100719.13;113442;219;169461;-55
2024/04/07 12:09:33;;;;;;;;;6.00;5.00;;;;;24.24;43.16;100712.19;113607;224;41769;-57